Time;durP1;ratioP1;P1;durP2;ratioP2;P2;SDS_P1;SDS_P2;PMS_P1;PMS_P2;Temp;Humidity;BMP_temperature;BMP_pressure;BME280_temperature;BME280_humidity;BME280_pressure;Samples;Min_cycle;Max_cycle;Signal;HPM_P1;HPM_P2
2022/10/03 00:01:10;;;;;;;9.10;3.75;;;;;;;10.16;100.00;99504.91;5092621;28;20023;-76
2022/10/03 00:03:54;;;;;;;6.30;3.90;;;;;;;10.10;100.00;99498.19;5092571;28;20066;-76
2022/10/03 00:07:02;;;;;;;9.90;4.05;;;;;;;10.11;100.00;99507.72;5092861;28;20040;-76
2022/10/03 00:09:39;;;;;;;8.60;4.20;;;;;;;10.07;100.00;99510.50;5009997;28;20034;-76
2022/10/03 00:12:07;;;;;;;8.40;3.80;;;;;;;10.04;100.00;99513.28;5010352;28;20492;-76
2022/10/03 00:14:53;;;;;;;11.68;4.00;;;;;;;10.03;100.00;99515.03;5010017;28;20029;-76
2022/10/03 00:17:41;;;;;;;11.18;3.78;;;;;;;10.04;100.00;99511.50;5010310;28;20133;-76
2022/10/03 00:20:18;;;;;;;8.13;3.95;;;;;;;10.00;100.00;99512.56;5010180;28;20033;-76
2022/10/03 00:23:17;;;;;;;10.75;4.53;;;;;;;9.94;100.00;99503.31;5010048;28;20030;-76
2022/10/03 00:25:48;;;;;;;12.43;4.60;;;;;;;9.90;100.00;99519.97;5010085;28;20109;-76
2022/10/03 00:28:13;;;;;;;9.38;4.00;;;;;;;9.86;100.00;99504.53;5010174;28;20029;-76
2022/10/03 00:30:51;;;;;;;10.48;3.60;;;;;;;9.77;100.00;99492.78;5009772;28;20032;-76
2022/10/03 00:33:25;;;;;;;9.70;4.35;;;;;;;9.78;100.00;99517.06;5009995;28;20100;-76
2022/10/03 00:35:53;;;;;;;12.50;4.00;;;;;;;9.75;100.00;99511.09;5009910;28;20149;-76
2022/10/03 00:38:51;;;;;;;10.27;4.05;;;;;;;9.73;100.00;99512.94;5009907;28;20073;-76
2022/10/03 00:41:37;;;;;;;11.18;3.80;;;;;;;9.73;100.00;99502.53;5010258;28;20393;-76
2022/10/03 00:44:05;;;;;;;13.82;4.45;;;;;;;9.72;100.00;99497.38;5009937;28;20493;-76
2022/10/03 00:46:44;;;;;;;10.57;3.53;;;;;;;9.70;100.00;99501.81;5079952;28;20540;-76
2022/10/03 00:49:31;;;;;;;12.40;4.45;;;;;;;9.63;100.00;99503.84;5092092;28;20034;-76
2022/10/03 00:52:05;;;;;;;10.45;3.85;;;;;;;9.58;100.00;99497.16;5091999;28;20511;-76
2022/10/03 00:54:59;;;;;;;11.15;3.70;;;;;;;9.62;100.00;99507.34;5092038;28;20467;-76
2022/10/03 00:57:33;;;;;;;12.30;4.10;;;;;;;9.62;100.00;99503.91;5092117;28;20020;-76
2022/10/03 01:00:34;;;;;;;9.75;3.75;;;;;;;9.63;100.00;99503.84;5091953;28;20035;-75
2022/10/03 01:03:16;;;;;;;11.23;4.25;;;;;;;9.64;100.00;99510.72;5091732;28;20107;-76
2022/10/03 01:06:03;;;;;;;9.45;4.07;;;;;;;9.65;100.00;99503.75;5093888;28;20044;-76
2022/10/03 01:08:31;;;;;;;12.15;4.68;;;;;;;9.64;100.00;99505.50;5095666;28;20028;-76
2022/10/03 01:11:16;;;;;;;9.38;3.97;;;;;;;9.60;100.00;99487.53;5096131;28;20028;-76
2022/10/03 01:14:19;;;;;;;9.13;3.85;;;;;;;9.70;100.00;99510.47;5095932;28;20058;-76
2022/10/03 01:17:26;;;;;;;12.20;4.05;;;;;;;9.77;100.00;99510.16;5095704;28;20459;-76
2022/10/03 01:20:25;;;;;;;9.05;3.60;;;;;;;9.81;100.00;99507.34;5013334;28;20444;-76
2022/10/03 01:23:09;;;;;;;15.13;4.20;;;;;;;9.86;100.00;99518.41;4954837;29;20491;-76
2022/10/03 01:25:49;;;;;;;13.93;4.65;;;;;;;9.88;100.00;99516.56;4954819;29;20031;-76
2022/10/03 01:31:22;;;;;;;12.57;3.78;;;;;;;10.00;100.00;99521.22;4954901;29;20099;-76
2022/10/03 01:33:58;;;;;;;13.00;4.35;;;;;;;10.01;100.00;99514.25;4954656;29;20111;-76
2022/10/03 01:36:31;;;;;;;12.38;4.20;;;;;;;10.07;100.00;99520.91;4954901;29;20031;-76
2022/10/03 01:39:04;;;;;;;9.90;3.78;;;;;;;10.08;100.00;99517.41;4954811;29;20035;-76
2022/10/03 01:41:36;;;;;;;14.18;4.07;;;;;;;10.13;100.00;99528.44;4954661;29;20091;-76
2022/10/03 01:44:15;;;;;;;12.57;3.88;;;;;;;10.15;100.00;99521.41;4954860;29;20039;-76
2022/10/03 01:47:05;;;;;;;12.18;3.65;;;;;;;10.16;100.00;99523.13;4954539;29;20058;-76
2022/10/03 01:49:56;;;;;;;17.75;4.95;;;;;;;10.16;100.00;99523.13;4954340;29;20039;-76
2022/10/03 01:52:37;;;;;;;8.07;3.88;;;;;;;10.12;100.00;99512.00;4954515;29;20062;-76
2022/10/03 01:55:30;;;;;;;9.50;3.95;;;;;;;10.20;100.00;99522.06;4954848;29;20031;-76
2022/10/03 01:58:02;;;;;;;10.05;3.55;;;;;;;10.17;100.00;99520.44;5052492;28;20464;-76
2022/10/03 02:00:44;;;;;;;16.27;4.65;;;;;;;10.21;100.00;99526.34;5094795;28;20509;-76
2022/10/03 02:03:20;;;;;;;11.50;3.97;;;;;;;10.23;100.00;99525.31;5095597;28;20027;-76
2022/10/03 02:05:48;;;;;;;10.57;3.67;;;;;;;10.26;100.00;99531.34;5094965;28;20043;-76
2022/10/03 02:08:29;;;;;;;12.80;4.50;;;;;;;10.27;100.00;99535.63;5094910;28;20470;-76
2022/10/03 02:11:09;;;;;;;10.02;3.80;;;;;;;10.21;100.00;99527.19;5094615;28;20526;-76
2022/10/03 02:13:35;;;;;;;14.30;3.72;;;;;;;10.28;100.00;99532.09;5094922;28;20585;-76
2022/10/03 02:16:12;;;;;;;10.35;4.40;;;;;;;10.25;100.00;99530.50;5094725;28;20039;-76
2022/10/03 02:18:45;;;;;;;10.25;4.15;;;;;;;10.29;100.00;99544.22;5094648;28;20059;-76
2022/10/03 02:21:19;;;;;;;9.05;3.80;;;;;;;10.29;100.00;99545.06;5094649;28;20038;-76
2022/10/03 02:23:47;;;;;;;15.20;4.32;;;;;;;10.23;100.00;99538.34;5094668;28;20016;-76
2022/10/03 02:26:37;;;;;;;11.05;3.60;;;;;;;10.33;100.00;99549.22;5094830;28;20024;-76
2022/10/03 02:29:17;;;;;;;15.63;4.13;;;;;;;10.32;100.00;99544.06;5094554;28;20453;-76
2022/10/03 02:32:00;;;;;;;15.20;4.57;;;;;;;10.34;100.00;99560.47;5094327;28;20106;-76
2022/10/03 02:35:09;;;;;;;18.40;4.90;;;;;;;10.34;100.00;99545.69;5094657;28;20027;-76
2022/10/03 02:38:19;;;;;;;13.88;3.97;;;;;;;10.34;100.00;99563.06;5094278;28;20056;-76
2022/10/03 02:40:47;;;;;;;14.37;4.00;;;;;;;10.34;100.00;99558.72;5011885;28;20423;-76
2022/10/03 02:43:44;;;;;;;11.30;4.25;;;;;;;10.36;100.00;99551.66;5012271;28;20347;-76
2022/10/03 02:46:47;;;;;;;16.00;4.18;;;;;;;10.37;100.00;99558.56;4953618;29;20468;-76
2022/10/03 02:50:00;;;;;;;15.93;4.40;;;;;;;10.38;100.00;99555.03;4953543;29;20089;-76
2022/10/03 02:52:53;;;;;;;16.98;4.00;;;;;;;10.39;100.00;99548.06;4915307;29;20040;-76
2022/10/03 02:55:49;;;;;;;10.15;3.75;;;;;;;10.38;100.00;99567.22;4915412;29;20425;-76
2022/10/03 02:58:41;;;;;;;11.93;3.85;;;;;;;10.31;100.00;99545.81;4915338;29;20044;-76
2022/10/03 03:01:12;;;;;;;12.18;4.07;;;;;;;10.38;100.00;99554.22;4915212;29;20118;-76
2022/10/03 03:03:50;;;;;;;14.73;4.60;;;;;;;10.38;100.00;99568.06;4914822;29;20044;-76
2022/10/03 03:06:21;;;;;;;8.18;3.63;;;;;;;10.22;100.00;99534.06;4915037;29;20483;-76
2022/10/03 03:09:05;;;;;;;13.48;3.72;;;;;;;10.41;100.00;99565.31;4914789;29;20076;-76
2022/10/03 03:11:58;;;;;;;13.70;4.88;;;;;;;10.42;100.00;99567.00;4914982;29;20127;-76
2022/10/03 03:14:41;;;;;;;12.80;3.67;;;;;;;10.43;100.00;99565.25;4915065;29;20028;-76
2022/10/03 03:17:12;;;;;;;15.68;4.55;;;;;;;10.44;100.00;99561.72;4947418;28;20042;-76
2022/10/03 03:19:49;;;;;;;9.90;2.97;;;;;;;10.42;100.00;99572.22;4991356;28;20069;-76
2022/10/03 03:22:36;;;;;;;12.75;3.90;;;;;;;10.42;100.00;99577.41;4997146;28;20041;-76
2022/10/03 03:25:20;;;;;;;13.82;4.47;;;;;;;10.43;100.00;99575.66;5031014;28;20025;-76
2022/10/03 03:28:08;;;;;;;12.23;3.92;;;;;;;10.43;100.00;99581.69;5041046;28;20060;-76
2022/10/03 03:31:05;;;;;;;8.40;3.85;;;;;;;10.45;100.00;99573.84;5093589;28;20024;-76
2022/10/03 03:33:30;;;;;;;15.30;4.28;;;;;;;10.44;100.00;99575.56;5011066;28;20127;-76
2022/10/03 03:36:09;;;;;;;12.00;4.80;;;;;;;10.38;100.00;99570.66;5010775;28;20788;-76
2022/10/03 03:38:39;;;;;;;8.73;4.25;;;;;;;10.38;100.00;99570.66;5010859;28;20492;-76
2022/10/03 03:41:30;;;;;;;13.98;5.32;;;;;;;10.43;100.00;99580.88;5010913;28;20128;-76
2022/10/03 03:44:08;;;;;;;10.75;4.30;;;;;;;10.43;100.00;99581.69;5010634;28;20091;-76
2022/10/03 03:47:09;;;;;;;12.60;4.57;;;;;;;10.40;100.00;99568.81;5010887;28;20532;-76
2022/10/03 03:50:02;;;;;;;12.93;3.97;;;;;;;10.40;100.00;99581.84;5010772;28;20030;-76
2022/10/03 03:52:44;;;;;;;9.23;4.00;;;;;;;10.42;100.00;99581.78;5010505;28;20030;-76
2022/10/03 03:55:29;;;;;;;12.27;4.10;;;;;;;10.42;100.00;99587.00;5010619;28;20056;-76
2022/10/03 03:58:00;;;;;;;10.85;4.15;;;;;;;10.40;100.00;99581.84;5010269;28;20046;-76
2022/10/03 04:00:56;;;;;;;11.27;3.95;;;;;;;10.42;100.00;99582.63;5010650;28;20052;-76
2022/10/03 04:03:45;;;;;;;15.23;4.88;;;;;;;10.43;100.00;99579.09;5010564;28;20049;-76
2022/10/03 04:06:22;;;;;;;12.90;3.50;;;;;;;10.43;100.00;99593.88;5010257;28;20385;-76
2022/10/03 04:09:08;;;;;;;12.10;4.03;;;;;;;10.41;100.00;99588.75;5010075;28;20022;-76
2022/10/03 04:11:48;;;;;;;16.90;4.03;;;;;;;10.42;100.00;99582.63;5089937;28;20046;-76
2022/10/03 04:14:44;;;;;;;11.73;4.40;;;;;;;10.43;100.00;99580.88;5069863;28;20033;-76
2022/10/03 04:20:40;;;;;;;10.82;3.90;;;;;;;10.42;100.00;99579.19;5030238;28;20044;-76
2022/10/03 04:23:05;;;;;;;13.77;3.70;;;;;;;10.43;100.00;99584.31;5029846;28;20029;-76
2022/10/03 04:25:42;;;;;;;11.48;3.88;;;;;;;10.43;100.00;99592.13;5029873;28;20032;-76
2022/10/03 04:28:37;;;;;;;8.77;3.33;;;;;;;10.41;100.00;99582.72;5029724;28;20044;-76
2022/10/03 04:31:29;;;;;;;10.80;3.92;;;;;;;10.47;100.00;99590.22;4970606;28;20061;-76
2022/10/03 04:34:09;;;;;;;14.82;3.53;;;;;;;10.47;100.00;99585.00;4970895;28;20035;-76
2022/10/03 04:36:46;;;;;;;10.57;3.58;;;;;;;10.40;100.00;99571.44;4971048;28;20049;-76
2022/10/03 04:39:27;;;;;;;18.58;4.28;;;;;;;10.49;100.00;99580.56;4970438;28;20113;-76
2022/10/03 04:42:00;;;;;;;11.88;3.30;;;;;;;10.45;100.00;99574.69;4970357;28;20046;-76
2022/10/03 04:44:29;;;;;;;10.65;3.70;;;;;;;10.48;100.00;99576.28;4970796;28;20060;-76
2022/10/03 04:47:04;;;;;;;11.75;4.13;;;;;;;10.49;100.00;99578.81;4970617;28;20039;-76
2022/10/03 04:49:40;;;;;;;16.05;4.13;;;;;;;10.49;100.00;99570.16;4970628;28;20514;-76
2022/10/03 04:52:18;;;;;;;8.43;3.70;;;;;;;10.48;100.00;99571.91;4970716;28;20034;-76
2022/10/03 04:55:06;;;;;;;12.55;3.72;;;;;;;10.51;100.00;99580.50;5026669;28;20082;-76
2022/10/03 04:57:46;;;;;;;14.40;4.00;;;;;;;10.49;100.00;99581.44;5049453;28;20522;-76
2022/10/03 05:00:28;;;;;;;15.48;4.00;;;;;;;10.44;100.00;99575.56;5049419;28;20480;-76
2022/10/03 05:03:15;;;;;;;13.20;4.13;;;;;;;10.44;100.00;99582.53;5049168;28;20033;-76
2022/10/03 05:05:50;;;;;;;12.23;3.72;;;;;;;10.45;100.00;99586.88;5049109;28;20045;-76
2022/10/03 05:08:18;;;;;;;11.05;3.55;;;;;;;10.45;100.00;99595.50;5078190;28;20032;-76
2022/10/03 05:10:55;;;;;;;7.35;3.00;;;;;;;10.42;100.00;99585.22;5091815;28;20020;-76
2022/10/03 05:13:44;;;;;;;9.13;4.05;;;;;;;10.41;100.00;99593.97;5092041;28;20078;-76
2022/10/03 05:16:36;;;;;;;12.05;4.00;;;;;;;10.40;100.00;99599.22;5091824;28;20103;-76
2022/10/03 05:19:45;;;;;;;7.93;3.13;;;;;;;10.39;100.00;99594.94;5091838;28;20020;-76
2022/10/03 05:22:16;;;;;;;18.48;4.03;;;;;;;10.38;100.00;99609.72;5009702;28;20416;-76
2022/10/03 05:24:57;;;;;;;14.40;4.90;;;;;;;10.37;100.00;99600.22;5009929;28;20046;-76
2022/10/03 05:27:50;;;;;;;13.98;4.07;;;;;;;10.32;100.00;99591.75;5009631;28;20117;-76
2022/10/03 05:30:34;;;;;;;16.65;4.15;;;;;;;10.36;100.00;99589.88;5009369;28;20105;-76
2022/10/03 05:33:02;;;;;;;14.52;3.50;;;;;;;10.39;100.00;99594.94;5009154;28;20485;-76
2022/10/03 05:35:48;;;;;;;10.18;3.70;;;;;;;10.37;100.00;99582.00;5009447;28;20030;-76
2022/10/03 05:38:47;;;;;;;25.42;12.38;;;;;;;10.42;100.00;99587.84;5009473;28;20441;-76
2022/10/03 05:41:15;;;;;;;11.00;4.10;;;;;;;10.46;100.00;99596.34;5009314;28;20038;-76
2022/10/03 05:43:43;;;;;;;15.32;4.28;;;;;;;10.47;100.00;99596.25;5009229;28;20148;-76
2022/10/03 05:46:38;;;;;;;13.80;4.15;;;;;;;10.48;100.00;99592.75;5009087;28;20041;-76
2022/10/03 05:49:33;;;;;;;10.15;4.05;;;;;;;10.52;100.00;99603.03;4950769;29;20126;-76
2022/10/03 05:52:27;;;;;;;11.32;4.22;;;;;;;10.49;100.00;99578.81;4952878;28;20077;-76
2022/10/03 05:55:17;;;;;;;11.63;4.40;;;;;;;10.61;100.00;99607.78;4954646;29;20459;-76
2022/10/03 05:58:02;;;;;;;13.18;4.15;;;;;;;10.60;100.00;99600.91;4954444;29;20027;-76
2022/10/03 06:00:36;;;;;;;9.82;3.35;;;;;;;10.59;100.00;99607.88;5052603;28;20128;-76
2022/10/03 06:03:29;;;;;;;9.35;3.47;;;;;;;10.60;100.00;99609.56;5035463;28;20024;-76
2022/10/03 06:06:23;;;;;;;9.55;3.65;;;;;;;10.49;100.00;99596.19;5051877;28;20052;-76
2022/10/03 06:09:09;;;;;;;9.35;3.08;;;;;;;10.56;100.00;99607.16;5051999;28;20083;-76
2022/10/03 06:11:43;;;;;;;9.80;3.33;;;;;;;10.56;100.00;99612.38;5051725;28;20419;-76
2022/10/03 06:14:23;;;;;;;6.45;3.03;;;;;;;10.56;100.00;99610.63;5051998;28;20087;-76
2022/10/03 06:17:27;;;;;;;6.18;3.10;;;;;;;10.52;100.00;99611.66;5051842;28;20098;-76
2022/10/03 06:20:29;;;;;;;7.10;3.38;;;;;;;10.58;100.00;99615.78;5051962;28;20029;-76
2022/10/03 06:22:57;;;;;;;10.25;3.15;;;;;;;10.56;100.00;99622.78;5051902;28;20222;-76
2022/10/03 06:25:44;;;;;;;7.07;3.20;;;;;;;10.56;100.00;99628.00;5071271;28;20032;-76
2022/10/03 06:28:47;;;;;;;8.07;3.92;;;;;;;10.55;100.00;99629.78;5094488;28;20459;-76
2022/10/03 06:31:49;;;;;;;11.50;3.08;;;;;;;10.53;100.00;99630.75;5094373;28;20110;-76
2022/10/03 06:34:23;;;;;;;10.25;3.78;;;;;;;10.51;100.00;99633.44;5094320;28;20485;-76
2022/10/03 06:36:59;;;;;;;8.07;3.47;;;;;;;10.50;100.00;99634.34;5094333;28;20027;-76
2022/10/03 06:39:52;;;;;;;9.07;3.03;;;;;;;10.50;100.00;99631.75;5094561;28;20340;-76
2022/10/03 06:42:59;;;;;;;7.07;3.05;;;;;;;10.44;100.00;99626.81;5094441;28;20078;-76
2022/10/03 06:46:00;;;;;;;11.05;3.35;;;;;;;10.51;100.00;99641.25;5094875;28;20034;-76
2022/10/03 06:48:45;;;;;;;7.28;3.13;;;;;;;10.52;100.00;99639.47;5094519;28;20027;-76
2022/10/03 06:51:36;;;;;;;8.90;3.28;;;;;;;10.54;100.00;99654.13;5094313;28;20045;-76
2022/10/03 06:54:20;;;;;;;8.93;3.28;;;;;;;10.57;100.00;99650.53;5092682;28;20020;-76
2022/10/03 06:57:20;;;;;;;10.32;3.85;;;;;;;10.59;100.00;99648.72;5094306;28;20032;-76
2022/10/03 07:00:10;;;;;;;6.40;3.10;;;;;;;10.53;100.00;99641.16;5011971;28;20432;-76
2022/10/03 07:02:54;;;;;;;7.00;2.92;;;;;;;10.60;100.00;99653.81;5010705;28;20141;-76
2022/10/03 07:05:47;;;;;;;13.18;3.75;;;;;;;10.65;100.00;99654.44;5011110;28;20033;-76
2022/10/03 07:09:09;;;;;;;8.25;2.72;;;;;;;10.68;100.00;99659.53;5011588;28;20393;-76
2022/10/03 07:11:43;;;;;;;9.73;3.20;;;;;;;10.83;100.00;99664.91;4953291;29;20039;-76
2022/10/03 07:14:47;;;;;;;6.15;3.33;;;;;;;11.06;100.00;99653.41;4952949;29;20115;-76
2022/10/03 07:17:34;;;;;;;7.68;3.03;;;;;;;11.11;100.00;99652.25;4952825;29;20035;-76
2022/10/03 07:20:02;;;;;;;6.88;2.90;;;;;;;11.22;100.00;99659.56;4952795;29;20039;-76
2022/10/03 07:22:55;;;;;;;9.30;3.20;;;;;;;11.26;100.00;99658.50;4952930;29;20035;-76
2022/10/03 07:25:47;;;;;;;10.48;3.20;;;;;;;11.29;100.00;99654.88;4952935;29;20031;-76
2022/10/03 07:28:26;;;;;;;8.20;2.97;;;;;;;11.33;100.00;99651.19;4953029;29;20027;-76
2022/10/03 07:30:54;;;;;;;5.05;2.47;;;;;;;11.43;100.00;99660.28;4952551;29;20475;-76
2022/10/03 07:33:41;;;;;;;7.60;2.53;;;;;;;11.47;100.00;99667.03;4952943;29;20035;-76
2022/10/03 07:39:12;;;;;;;7.55;2.42;;;;;;;11.72;100.00;99654.44;5050698;28;20027;-76
2022/10/03 07:42:09;;;;;;;7.43;3.00;;;;;;;12.17;100.00;99662.56;5050536;28;20090;-76
2022/10/03 07:44:44;;;;;;;6.63;2.20;;;;;;;12.15;100.00;99667.88;5004917;28;20047;-76
2022/10/03 07:47:28;;;;;;;6.97;2.50;;;;;;;12.22;100.00;99671.03;5050186;28;20507;-76
2022/10/03 07:50:02;;;;;;;5.68;2.85;;;;;;;12.44;100.00;99681.16;5050160;28;20033;-76
2022/10/03 07:52:43;;;;;;;5.18;2.17;;;;;;;12.49;100.00;99674.75;5050432;28;20425;-76
2022/10/03 07:55:20;;;;;;;6.20;2.38;;;;;;;12.59;100.00;99687.31;5050225;28;20068;-76
2022/10/03 07:57:56;;;;;;;4.75;2.22;;;;;;;12.70;100.00;99680.59;5050385;28;20029;-76
2022/10/03 08:00:26;;;;;;;6.85;2.70;;;;;;;12.55;100.00;99667.50;5050330;28;20036;-76
2022/10/03 08:03:13;;;;;;;5.10;2.60;;;;;;;12.68;100.00;99695.53;5050200;28;20071;-76
2022/10/03 08:05:57;;;;;;;6.57;3.85;;;;;;;12.64;100.00;99693.13;5049925;28;20045;-76
2022/10/03 08:08:56;;;;;;;8.07;2.95;;;;;;;12.62;100.00;99700.22;5050085;28;20037;-76
2022/10/03 08:11:41;;;;;;;8.05;2.55;;;;;;;12.59;100.00;99700.38;5049912;28;20349;-76
2022/10/03 08:14:19;;;;;;;6.13;2.90;;;;;;;12.58;100.00;99706.53;5049809;28;20036;-76
2022/10/03 08:16:59;;;;;;;9.50;4.25;;;;;;;12.48;100.00;99703.59;5050007;28;20032;-76
2022/10/03 08:20:06;;;;;;;8.10;5.07;;;;;;;12.31;100.00;99708.88;5049922;28;20032;-76
2022/10/03 08:22:37;;;;;;;8.93;3.72;;;;;;;12.13;100.00;99710.66;5003726;28;20041;-76
2022/10/03 08:25:21;;;;;;;;;;;;;;;12.02;100.00;99713.00;5010377;28;20100;-76
2022/10/03 08:28:20;;;;;;;8.82;5.38;;;;;;;11.85;100.00;99708.63;5010162;28;19912;-76
2022/10/03 08:31:42;;;;;;;6.97;4.57;;;;;;;11.83;100.00;99715.69;5010106;28;20391;-76
2022/10/03 08:34:35;;;;;;;7.25;4.15;;;;;;;11.89;100.00;99707.56;4913444;29;20071;-76
2022/10/03 08:37:32;;;;;;;12.35;5.85;;;;;;;12.11;100.00;99708.13;4913461;29;20032;-76
2022/10/03 08:40:22;;;;;;;9.35;4.57;;;;;;;12.29;100.00;99698.47;4913249;29;20036;-76
2022/10/03 08:42:57;;;;;;;10.27;5.68;;;;;;;12.47;100.00;99704.50;4913596;29;20463;-76
2022/10/03 08:45:41;;;;;;;10.50;6.20;;;;;;;12.53;100.00;99703.34;4913529;29;20633;-76
2022/10/03 08:48:34;;;;;;;7.55;4.07;;;;;;;12.69;100.00;99704.19;4913345;29;20092;-76
2022/10/03 08:51:18;;;;;;;4.65;2.85;;;;;;;13.16;100.00;99703.34;4913009;29;20036;-76
2022/10/03 08:54:10;;;;;;;5.65;3.03;;;;;;;13.31;100.00;99712.94;4913458;29;20032;-76
2022/10/03 08:56:38;;;;;;;7.68;3.60;;;;;;;13.40;100.00;99716.81;4913506;29;20119;-76
2022/10/03 08:59:29;;;;;;;7.03;2.88;;;;;;;13.44;100.00;99720.94;4961477;28;20602;-76
2022/10/03 09:02:01;;;;;;;4.32;2.58;;;;;;;13.35;100.00;99722.31;4990266;28;20525;-76
2022/10/03 09:05:03;;;;;;;9.15;3.55;;;;;;;13.52;100.00;99716.09;5021590;28;20035;-76
2022/10/03 09:07:50;;;;;;;7.35;2.92;;;;;;;13.75;100.00;99709.56;5091809;28;20050;-76
2022/10/03 09:10:38;;;;;;;7.70;4.00;;;;;;;13.91;100.00;99705.09;5091592;28;20542;-76
2022/10/03 09:13:16;;;;;;;9.75;4.18;;;;;;;14.04;99.04;99704.38;5009488;28;20440;-76
2022/10/03 09:16:00;;;;;;;9.07;3.92;;;;;;;13.98;98.67;99719.50;5009759;28;20078;-76
2022/10/03 09:18:31;;;;;;;7.50;3.53;;;;;;;14.05;99.01;99714.75;5009915;28;20038;-76
2022/10/03 09:21:12;;;;;;;;;;;;;;;14.13;98.31;99706.44;5009968;28;20041;-76
2022/10/03 09:24:01;;;;;;;7.57;3.47;;;;;;;14.08;97.42;99711.94;5009611;28;19960;-76
2022/10/03 09:26:32;;;;;;;7.95;4.53;;;;;;;13.95;97.03;99719.69;5010897;28;20041;-76
2022/10/03 09:29:36;;;;;;;10.48;3.38;;;;;;;13.76;96.28;99728.72;5013412;28;20373;-76
2022/10/03 09:32:10;;;;;;;9.90;4.53;;;;;;;13.64;97.06;99725.88;5013118;28;20022;-76
2022/10/03 09:35:13;;;;;;;14.60;6.68;;;;;;;13.60;97.46;99728.75;5013262;28;20030;-76
2022/10/03 09:37:56;;;;;;;8.95;3.33;;;;;;;13.49;97.39;99726.78;5013190;28;20040;-76
2022/10/03 09:40:43;;;;;;;9.68;3.28;;;;;;;13.50;97.61;99732.84;4996456;28;20413;-76
2022/10/03 09:43:17;;;;;;;7.00;2.80;;;;;;;13.47;97.59;99737.31;5012832;28;20038;-76
2022/10/03 09:46:16;;;;;;;7.70;2.95;;;;;;;13.35;97.63;99731.94;5013250;28;20026;-76
2022/10/03 09:49:01;;;;;;;6.78;2.80;;;;;;;13.33;98.01;99736.41;5012996;28;20029;-76
2022/10/03 09:51:45;;;;;;;7.07;2.75;;;;;;;13.35;98.13;99732.78;5095231;28;20026;-76
2022/10/03 09:54:29;;;;;;;8.25;3.00;;;;;;;13.30;98.56;99734.81;5095235;28;20069;-76
2022/10/03 09:57:20;;;;;;;7.70;3.60;;;;;;;13.13;99.67;99745.34;5095275;28;20058;-76
2022/10/03 10:00:13;;;;;;;12.20;4.55;;;;;;;13.03;100.00;99755.47;5095090;28;20020;-76
2022/10/03 10:02:57;;;;;;;7.30;3.15;;;;;;;12.98;100.00;99752.28;5095142;28;20032;-76
2022/10/03 10:05:51;;;;;;;6.13;3.05;;;;;;;12.94;100.00;99748.16;5094792;28;20501;-76
2022/10/03 10:08:35;;;;;;;6.95;2.83;;;;;;;12.85;100.00;99752.09;5094687;28;20020;-76
2022/10/03 10:11:35;;;;;;;7.65;3.53;;;;;;;12.82;100.00;99759.25;5095016;28;20034;-76
2022/10/03 10:14:25;;;;;;;17.65;7.28;;;;;;;12.81;100.00;99754.94;5012507;28;20034;-76
2022/10/03 10:16:50;;;;;;;10.02;4.80;;;;;;;12.75;100.00;99756.13;5012487;28;20036;-76
2022/10/03 10:19:55;;;;;;;8.38;3.92;;;;;;;12.67;100.00;99753.91;5012134;28;20030;-76
2022/10/03 10:22:40;;;;;;;16.85;5.15;;;;;;;12.71;100.00;99762.44;4953863;29;20062;-76
2022/10/03 10:25:54;;;;;;;9.82;4.57;;;;;;;12.81;100.00;99770.63;4953874;29;20027;-76
2022/10/03 10:28:28;;;;;;;8.18;3.30;;;;;;;12.88;100.00;99764.16;4953878;29;20066;-76
2022/10/03 10:31:21;;;;;;;7.53;3.45;;;;;;;13.06;100.00;99772.75;4953866;29;20136;-76
2022/10/03 10:34:04;;;;;;;9.73;3.42;;;;;;;13.22;100.00;99763.13;4953761;29;20463;-76
2022/10/03 10:36:33;;;;;;;7.40;3.13;;;;;;;13.45;100.00;99777.59;4953803;29;20027;-76
2022/10/03 10:39:27;;;;;;;6.28;2.88;;;;;;;13.64;100.00;99769.53;4953714;29;20463;-76
2022/10/03 10:42:30;;;;;;;6.03;2.80;;;;;;;13.64;99.09;99766.91;4953766;29;20031;-76
2022/10/03 10:45:10;;;;;;;7.82;3.13;;;;;;;13.46;98.42;99776.66;4953710;29;20043;-76
2022/10/03 10:48:05;;;;;;;7.63;3.53;;;;;;;13.31;98.49;99765.25;4953586;29;20112;-76
2022/10/03 10:51:07;;;;;;;7.57;3.03;;;;;;;13.35;98.59;99773.78;5004663;28;20033;-76
2022/10/03 10:54:34;;;;;;;4.80;2.72;;;;;;;13.43;98.83;99775.03;5051479;28;20040;-76
2022/10/03 10:56:59;;;;;;;8.20;2.95;;;;;;;13.58;98.40;99767.28;4934242;29;20123;-76
2022/10/03 11:00:04;;;;;;;9.27;2.90;;;;;;;13.70;98.11;99770.03;4942978;29;20190;-76
2022/10/03 11:03:06;;;;;;;6.57;2.53;;;;;;;13.78;97.74;99766.97;4896235;29;20032;-76
2022/10/03 11:05:47;;;;;;;5.75;2.35;;;;;;;13.85;97.26;99768.28;4896163;29;20440;-76
2022/10/03 11:08:15;;;;;;;;;;;;;;;13.91;97.11;99775.78;4896433;29;20037;-76
2022/10/03 11:11:11;;;;;;;5.95;2.67;;;;;;;13.81;96.66;99772.00;4896017;29;19954;-76
2022/10/03 11:14:15;;;;;;;9.25;3.15;;;;;;;13.71;97.13;99768.25;4896355;29;20041;-76
2022/10/03 11:17:02;;;;;;;5.93;2.47;;;;;;;13.59;97.73;99775.03;4895983;29;20043;-76
2022/10/03 11:19:59;;;;;;;8.93;2.50;;;;;;;13.59;98.86;99771.56;4895865;29;20044;-76
2022/10/03 11:22:53;;;;;;;5.90;2.47;;;;;;;13.61;99.11;99775.78;4877021;29;20037;-76
2022/10/03 11:25:21;;;;;;;5.65;2.22;;;;;;;13.69;98.86;99778.81;4876945;29;20137;-76
2022/10/03 11:28:01;;;;;;;5.90;2.63;;;;;;;13.72;97.93;99783.84;4877055;29;20115;-76
2022/10/03 11:30:45;;;;;;;5.50;2.40;;;;;;;13.76;97.94;99776.66;4876796;29;20049;-76
2022/10/03 11:33:35;;;;;;;6.60;2.33;;;;;;;13.69;97.22;99772.72;4923980;28;20106;-76
2022/10/03 11:36:22;;;;;;;4.00;2.45;;;;;;;13.66;96.70;99778.97;4990896;28;20037;-76
2022/10/03 11:39:03;;;;;;;5.63;2.13;;;;;;;13.63;96.47;99779.16;5030690;28;20025;-76
2022/10/03 11:41:46;;;;;;;5.38;2.25;;;;;;;13.56;97.16;99756.03;5030557;28;20472;-76
2022/10/03 11:44:32;;;;;;;3.92;2.22;;;;;;;13.75;97.88;99772.38;5030512;28;20468;-76
2022/10/03 11:47:10;;;;;;;6.25;2.65;;;;;;;13.81;98.10;99776.41;5030707;28;20036;-76
2022/10/03 11:50:07;;;;;;;6.57;2.35;;;;;;;13.77;98.63;99787.97;5030054;28;20349;-76
2022/10/03 11:52:46;;;;;;;4.90;2.30;;;;;;;13.66;99.73;99778.97;5030545;28;20044;-76
2022/10/03 11:55:32;;;;;;;2.58;2.03;;;;;;;13.36;100.00;99758.03;5030500;28;20037;-76
2022/10/03 11:57:58;;;;;;;4.88;2.63;;;;;;;13.19;100.00;99779.84;5030417;28;20025;-76
2022/10/03 12:00:24;;;;;;;3.97;2.92;;;;;;;13.01;100.00;99775.63;5089330;28;20498;-76
2022/10/03 12:02:55;;;;;;;5.68;2.50;;;;;;;13.09;100.00;99790.88;5092775;28;20028;-76
2022/10/03 12:05:41;;;;;;;5.03;2.38;;;;;;;13.14;100.00;99786.25;5092549;28;20348;-76
2022/10/03 12:11:36;;;;;;;5.85;2.33;;;;;;;13.07;100.00;99791.00;5092352;28;20108;-76
2022/10/03 12:14:21;;;;;;;3.17;2.17;;;;;;;13.08;100.00;99789.22;5092660;28;20077;-76
2022/10/03 12:17:14;;;;;;;3.42;2.28;;;;;;;13.05;100.00;99789.38;5092654;28;20027;-76
2022/10/03 12:20:02;;;;;;;5.32;2.40;;;;;;;13.02;100.00;99787.78;5092752;28;20024;-76
2022/10/03 12:22:36;;;;;;;8.40;3.17;;;;;;;13.00;100.00;99781.78;5092439;28;20020;-76
2022/10/03 12:25:35;;;;;;;5.53;2.80;;;;;;;13.08;100.00;99795.28;5092563;28;20020;-76
2022/10/03 12:28:24;;;;;;;6.38;2.92;;;;;;;13.18;100.00;99778.16;5092986;28;20515;-76
2022/10/03 12:31:16;;;;;;;4.70;2.90;;;;;;;13.25;100.00;99772.63;5092415;28;20016;-76
2022/10/03 12:34:12;;;;;;;9.15;2.38;;;;;;;13.44;100.00;99781.97;5092411;28;20024;-76
2022/10/03 12:36:59;;;;;;;7.88;3.08;;;;;;;13.66;100.00;99781.59;5092506;28;20024;-76
2022/10/03 12:39:50;;;;;;;7.45;2.78;;;;;;;13.79;100.00;99783.50;5092172;28;20077;-76
2022/10/03 12:42:32;;;;;;;10.13;2.63;;;;;;;13.89;100.00;99784.66;5009654;28;20034;-76
2022/10/03 12:45:31;;;;;;;6.70;2.35;;;;;;;13.95;99.27;99790.41;5009932;28;20034;-76
2022/10/03 12:48:01;;;;;;;11.98;3.08;;;;;;;13.95;99.13;99800.88;5009896;28;20060;-76
2022/10/03 12:50:46;;;;;;;4.20;2.25;;;;;;;13.97;99.08;99796.38;5009558;28;20026;-76
2022/10/03 12:53:24;;;;;;;7.70;2.53;;;;;;;14.01;98.82;99804.91;5009898;28;20456;-76
2022/10/03 12:56:06;;;;;;;7.72;2.80;;;;;;;14.09;98.84;99804.44;5009956;28;20084;-76
2022/10/03 12:58:49;;;;;;;6.50;2.88;;;;;;;14.09;98.88;99812.31;5009668;28;20030;-76